sensor_id;sensor_type;location;lat;lon;timestamp;pressure;altitude;pressure_sealevel;temperature;humidity
7586;BME280;12459;42.646;23.292;2023-02-10T00:02:51;95299.63;;;6.04;76.56
7586;BME280;12459;42.646;23.292;2023-02-10T00:17:52;95295.41;;;6.03;76.37
7586;BME280;12459;42.646;23.292;2023-02-10T00:32:54;95278.22;;;6.00;76.34
7586;BME280;12459;42.646;23.292;2023-02-10T00:47:56;95271.34;;;5.99;76.89
7586;BME280;12459;42.646;23.292;2023-02-10T01:02:57;95262.16;;;5.97;76.68
7586;BME280;12459;42.646;23.292;2023-02-10T01:17:59;95254.19;;;5.97;76.55
7586;BME280;12459;42.646;23.292;2023-02-10T01:33:00;95229.34;;;5.93;76.57
7586;BME280;12459;42.646;23.292;2023-02-10T01:48:02;95232.78;;;5.93;76.19
7586;BME280;12459;42.646;23.292;2023-02-10T02:03:04;95204.03;;;5.87;76.29
7586;BME280;12459;42.646;23.292;2023-02-10T02:18:22;95193.84;;;5.89;76.32
7586;BME280;12459;42.646;23.292;2023-02-10T03:03:57;95175.00;;;5.82;77.63
7586;BME280;12459;42.646;23.292;2023-02-10T03:18:59;95193.28;;;5.83;76.93
7586;BME280;12459;42.646;23.292;2023-02-10T03:34:01;95187.84;;;5.80;76.59
7586;BME280;12459;42.646;23.292;2023-02-10T03:49:03;95161.25;;;5.80;76.50
7586;BME280;12459;42.646;23.292;2023-02-10T04:04:05;95165.47;;;5.81;76.34
7586;BME280;12459;42.646;23.292;2023-02-10T04:19:06;95160.38;;;5.75;76.41
7586;BME280;12459;42.646;23.292;2023-02-10T04:34:08;95165.25;;;5.73;76.37
7586;BME280;12459;42.646;23.292;2023-02-10T04:49:10;95168.34;;;5.75;76.07
7586;BME280;12459;42.646;23.292;2023-02-10T05:04:11;95174.34;;;5.72;75.99
7586;BME280;12459;42.646;23.292;2023-02-10T05:19:13;95185.41;;;5.74;76.11
7586;BME280;12459;42.646;23.292;2023-02-10T05:34:14;95208.47;;;5.70;76.08
7586;BME280;12459;42.646;23.292;2023-02-10T05:49:16;95227.06;;;5.70;75.25
7586;BME280;12459;42.646;23.292;2023-02-10T06:04:18;95235.06;;;5.83;74.50
7586;BME280;12459;42.646;23.292;2023-02-10T06:19:19;95253.72;;;5.95;74.11
7586;BME280;12459;42.646;23.292;2023-02-10T06:34:21;95266.25;;;6.06;74.34
7586;BME280;12459;42.646;23.292;2023-02-10T06:49:22;95276.59;;;6.32;72.83
7586;BME280;12459;42.646;23.292;2023-02-10T07:04:24;95288.59;;;6.38;72.63
7586;BME280;12459;42.646;23.292;2023-02-10T07:19:25;95264.63;;;6.38;73.17
7586;BME280;12459;42.646;23.292;2023-02-10T07:34:28;95264.16;;;6.49;73.75
7586;BME280;12459;42.646;23.292;2023-02-10T07:49:31;95265.38;;;6.51;75.04
7586;BME280;12459;42.646;23.292;2023-02-10T08:04:33;95280.69;;;6.54;74.52
7586;BME280;12459;42.646;23.292;2023-02-10T08:19:34;95267.03;;;6.56;74.58
7586;BME280;12459;42.646;23.292;2023-02-10T08:34:37;95270.16;;;6.58;74.60
7586;BME280;12459;42.646;23.292;2023-02-10T08:49:40;95270.25;;;6.61;74.84
7586;BME280;12459;42.646;23.292;2023-02-10T09:20:48;95254.63;;;6.48;75.25
7586;BME280;12459;42.646;23.292;2023-02-10T09:35:50;95247.09;;;6.50;75.32
7586;BME280;12459;42.646;23.292;2023-02-10T09:50:54;95239.53;;;6.52;75.34
7586;BME280;12459;42.646;23.292;2023-02-10T10:06:09;95221.78;;;6.56;75.21
7586;BME280;12459;42.646;23.292;2023-02-10T10:21:22;95198.69;;;6.60;75.29
7586;BME280;12459;42.646;23.292;2023-02-10T10:36:29;95185.81;;;6.62;74.88
7586;BME280;12459;42.646;23.292;2023-02-10T10:51:33;95171.47;;;6.66;74.59
7586;BME280;12459;42.646;23.292;2023-02-10T11:06:35;95155.59;;;6.70;74.26
7586;BME280;12459;42.646;23.292;2023-02-10T11:21:39;95148.22;;;6.79;74.02
7586;BME280;12459;42.646;23.292;2023-02-10T11:36:43;95140.25;;;6.79;74.12
7586;BME280;12459;42.646;23.292;2023-02-10T11:51:55;95132.25;;;6.79;75.84
7586;BME280;12459;42.646;23.292;2023-02-10T13:21:10;95072.28;;;6.85;75.36
7586;BME280;12459;42.646;23.292;2023-02-10T13:44:33;95083.38;;;6.87;75.54
7586;BME280;12459;42.646;23.292;2023-02-10T13:59:38;95076.47;;;6.86;76.24
7586;BME280;12459;42.646;23.292;2023-02-10T14:14:40;95078.38;;;6.86;76.30
7586;BME280;12459;42.646;23.292;2023-02-10T14:29:47;95071.50;;;6.85;76.12
7586;BME280;12459;42.646;23.292;2023-02-10T14:44:51;95047.88;;;6.83;76.91
7586;BME280;12459;42.646;23.292;2023-02-10T14:59:57;95060.94;;;6.88;76.12
7586;BME280;12459;42.646;23.292;2023-02-10T15:15:05;95056.38;;;6.89;75.62
7586;BME280;12459;42.646;23.292;2023-02-10T15:30:08;95067.81;;;6.89;75.71
7586;BME280;12459;42.646;23.292;2023-02-10T15:45:14;95074.50;;;6.83;76.26
7586;BME280;12459;42.646;23.292;2023-02-10T16:00:20;95088.41;;;6.77;76.94
7586;BME280;12459;42.646;23.292;2023-02-10T16:15:23;95104.84;;;6.79;76.88
7586;BME280;12459;42.646;23.292;2023-02-10T16:30:26;95123.81;;;6.77;75.98
7586;BME280;12459;42.646;23.292;2023-02-10T16:45:29;95128.88;;;6.66;76.06
7586;BME280;12459;42.646;23.292;2023-02-10T17:00:31;95135.97;;;6.62;75.98
7586;BME280;12459;42.646;23.292;2023-02-10T17:15:32;95137.00;;;6.58;76.12
7586;BME280;12459;42.646;23.292;2023-02-10T17:30:34;95145.75;;;6.58;75.87
7586;BME280;12459;42.646;23.292;2023-02-10T17:45:41;95152.97;;;6.58;76.72
7586;BME280;12459;42.646;23.292;2023-02-10T18:00:42;95162.06;;;6.57;78.59
7586;BME280;12459;42.646;23.292;2023-02-10T18:15:44;95175.81;;;6.59;79.05
7586;BME280;12459;42.646;23.292;2023-02-10T18:47:20;95192.91;;;6.58;78.77
7586;BME280;12459;42.646;23.292;2023-02-10T19:02:25;95208.91;;;6.58;78.45
7586;BME280;12459;42.646;23.292;2023-02-10T19:17:27;95219.88;;;6.56;77.93
7586;BME280;12459;42.646;23.292;2023-02-10T19:32:28;95226.56;;;6.50;77.25
7586;BME280;12459;42.646;23.292;2023-02-10T19:47:30;95221.91;;;6.47;76.62
7586;BME280;12459;42.646;23.292;2023-02-10T20:02:31;95230.34;;;6.49;77.25
7586;BME280;12459;42.646;23.292;2023-02-10T20:17:33;95229.56;;;6.49;77.52
7586;BME280;12459;42.646;23.292;2023-02-10T20:32:35;95235.66;;;6.49;77.11
7586;BME280;12459;42.646;23.292;2023-02-10T20:47:36;95235.22;;;6.47;76.86
7586;BME280;12459;42.646;23.292;2023-02-10T21:02:38;95237.78;;;6.44;77.24
7586;BME280;12459;42.646;23.292;2023-02-10T21:17:39;95220.13;;;6.39;77.26
7586;BME280;12459;42.646;23.292;2023-02-10T21:32:41;95211.81;;;6.40;77.27
7586;BME280;12459;42.646;23.292;2023-02-10T21:47:45;95198.94;;;6.43;77.18
7586;BME280;12459;42.646;23.292;2023-02-10T22:02:47;95219.13;;;6.44;77.14
7586;BME280;12459;42.646;23.292;2023-02-10T22:17:49;95217.47;;;6.39;76.97
7586;BME280;12459;42.646;23.292;2023-02-10T22:32:50;95211.38;;;6.38;77.11
7586;BME280;12459;42.646;23.292;2023-02-10T22:47:52;95216.25;;;6.36;77.16
7586;BME280;12459;42.646;23.292;2023-02-10T23:02:57;95208.72;;;6.38;77.11
7586;BME280;12459;42.646;23.292;2023-02-10T23:17:58;95199.50;;;6.36;76.97
7586;BME280;12459;42.646;23.292;2023-02-10T23:33:00;95206.38;;;6.37;77.13
7586;BME280;12459;42.646;23.292;2023-02-10T23:48:09;95207.41;;;6.32;77.23
